createdAt,value
2023-02-25T00:00:25.297Z,23.38
2023-02-25T00:02:52.011Z,30.60
2023-02-25T00:05:19.051Z,30.27
2023-02-25T00:07:45.668Z,33.25
2023-02-25T00:10:13.418Z,29.20
2023-02-25T00:12:40.213Z,23.35
2023-02-25T00:15:08.622Z,28.23
2023-02-25T00:17:35.773Z,33.72
2023-02-25T00:20:02.129Z,29.92
2023-02-25T00:22:28.433Z,21.17
2023-02-25T00:24:55.677Z,28.70
2023-02-25T00:27:23.038Z,27.45
2023-02-25T00:29:53.206Z,26.35
2023-02-25T00:32:20.571Z,26.25
2023-02-25T00:34:47.034Z,22.95
2023-02-25T00:37:14.422Z,28.85
2023-02-25T00:39:41.028Z,24.15
2023-02-25T00:42:17.948Z,37.70
2023-02-25T00:44:46.444Z,25.50
2023-02-25T00:47:13.141Z,27.50
2023-02-25T00:49:39.680Z,24.25
2023-02-25T00:52:07.368Z,25.60
2023-02-25T00:54:34.776Z,28.77
2023-02-25T00:57:01.216Z,24.70
2023-02-25T00:59:27.574Z,20.45
2023-02-25T01:01:53.970Z,25.38
2023-02-25T01:04:20.405Z,36.22
2023-02-25T01:06:46.883Z,22.45
2023-02-25T01:09:13.204Z,33.40
2023-02-25T01:11:45.893Z,31.52
2023-02-25T01:14:16.984Z,27.40
2023-02-25T01:16:44.636Z,29.48
2023-02-25T01:19:17.412Z,24.00
2023-02-25T01:21:46.124Z,29.75
2023-02-25T01:24:25.520Z,27.05
2023-02-25T01:26:55.650Z,29.25
2023-02-25T01:29:24.966Z,29.10
2023-02-25T01:31:53.134Z,25.25
2023-02-25T01:34:19.685Z,27.75
2023-02-25T01:36:46.958Z,21.95
2023-02-25T01:39:16.187Z,22.35
2023-02-25T01:41:43.495Z,29.02
2023-02-25T01:44:14.224Z,35.45
2023-02-25T01:46:42.850Z,27.35
2023-02-25T01:49:17.319Z,31.52
2023-02-25T01:51:46.027Z,25.55
2023-02-25T01:54:14.344Z,27.83
2023-02-25T01:56:44.442Z,30.25
2023-02-25T01:59:10.969Z,28.02
2023-02-25T02:01:39.530Z,21.80
2023-02-25T02:04:08.744Z,30.25
2023-02-25T02:06:38.682Z,18.60
2023-02-25T02:09:08.236Z,20.92
2023-02-25T02:11:34.560Z,25.83
2023-02-25T02:14:03.576Z,31.45
2023-02-25T02:16:55.892Z,32.17
2023-02-25T02:19:36.013Z,23.80
2023-02-25T02:22:25.500Z,22.77
2023-02-25T02:24:57.862Z,19.15
2023-02-25T02:27:28.679Z,20.60
2023-02-25T02:30:16.788Z,21.45
2023-02-25T02:33:01.742Z,27.27
2023-02-25T02:35:48.704Z,23.13
2023-02-25T02:38:41.216Z,31.10
2023-02-25T02:41:15.844Z,31.98
2023-02-25T02:44:08.316Z,24.65
2023-02-25T02:46:39.311Z,24.27
2023-02-25T02:49:11.873Z,30.38
2023-02-25T02:51:45.765Z,25.60
2023-02-25T02:54:15.343Z,28.03
2023-02-25T02:56:44.832Z,31.83
2023-02-25T02:59:28.566Z,26.77
2023-02-25T03:02:03.660Z,27.75
2023-02-25T03:04:35.234Z,24.70
2023-02-25T03:07:07.169Z,23.58
2023-02-25T03:09:40.832Z,20.38
2023-02-25T03:12:07.290Z,25.67
2023-02-25T03:14:33.693Z,17.92
2023-02-25T03:17:20.250Z,22.90
2023-02-25T03:19:46.644Z,24.90
2023-02-25T03:22:15.976Z,25.15
2023-02-25T03:25:09.864Z,21.95
2023-02-25T03:27:44.343Z,24.65
2023-02-25T03:30:14.924Z,25.92
2023-02-25T03:32:47.070Z,20.58
2023-02-25T03:35:15.060Z,20.33
2023-02-25T03:37:46.514Z,18.50
2023-02-25T03:40:14.621Z,14.57
2023-02-25T03:42:46.074Z,19.20
2023-02-25T03:45:15.127Z,24.95
2023-02-25T03:47:42.306Z,17.20
2023-02-25T03:50:14.636Z,23.63
2023-02-25T03:52:41.914Z,18.60
2023-02-25T03:55:11.669Z,18.58
2023-02-25T03:57:44.148Z,20.05
2023-02-25T04:00:24.078Z,19.40
2023-02-25T04:02:50.876Z,32.35
2023-02-25T04:05:19.123Z,13.25
2023-02-25T04:07:46.183Z,17.25
2023-02-25T04:10:15.216Z,23.40
2023-02-25T04:12:41.791Z,18.52
2023-02-25T04:15:09.088Z,18.48
2023-02-25T04:17:37.238Z,24.15
2023-02-25T04:20:04.459Z,19.88
2023-02-25T04:22:30.806Z,21.52
2023-02-25T04:24:57.138Z,18.67
2023-02-25T04:27:23.442Z,23.65
2023-02-25T04:29:49.951Z,18.48
2023-02-25T04:32:16.379Z,21.63
2023-02-25T04:34:42.760Z,18.75
2023-02-25T04:37:09.085Z,14.05
2023-02-25T04:39:35.685Z,15.60
2023-02-25T04:42:02.324Z,18.30
2023-02-25T04:44:28.668Z,20.73
2023-02-25T04:46:55.069Z,14.23
2023-02-25T04:49:22.486Z,19.90
2023-02-25T04:51:50.153Z,15.60
2023-02-25T04:54:16.748Z,9.88
2023-02-25T04:56:43.058Z,18.42
2023-02-25T04:59:10.004Z,17.08
2023-02-25T05:01:36.320Z,18.60
2023-02-25T05:04:02.996Z,14.02
2023-02-25T05:06:29.802Z,19.50
2023-02-25T05:08:57.317Z,14.48
2023-02-25T05:11:25.854Z,9.27
2023-02-25T05:13:52.886Z,12.05
2023-02-25T05:16:19.887Z,11.65
2023-02-25T05:18:47.538Z,17.75
2023-02-25T05:21:19.478Z,10.63
2023-02-25T05:23:47.718Z,13.00
2023-02-25T05:26:15.602Z,10.23
2023-02-25T05:28:41.948Z,7.20
2023-02-25T05:31:09.706Z,10.50
2023-02-25T05:33:36.842Z,13.13
2023-02-25T05:36:11.199Z,7.72
2023-02-25T05:38:37.975Z,8.68
2023-02-25T05:41:05.483Z,9.82
2023-02-25T05:43:32.432Z,11.25
2023-02-25T05:46:00.000Z,8.52
2023-02-25T05:48:26.328Z,7.28
2023-02-25T05:51:00.437Z,10.70
2023-02-25T05:53:26.829Z,10.73
2023-02-25T05:55:53.175Z,8.20
2023-02-25T05:58:19.486Z,9.93
2023-02-25T06:00:45.802Z,9.43
2023-02-25T06:03:12.110Z,10.35
2023-02-25T06:05:42.595Z,8.88
2023-02-25T06:08:10.893Z,11.15
2023-02-25T06:10:38.842Z,13.35
2023-02-25T06:13:06.406Z,10.43
2023-02-25T06:15:32.862Z,15.27
2023-02-25T06:17:59.176Z,13.38
2023-02-25T06:20:25.513Z,8.95
2023-02-25T06:22:51.997Z,10.55
2023-02-25T06:25:18.339Z,9.00
2023-02-25T06:27:44.663Z,12.07
2023-02-25T06:30:11.540Z,15.80
2023-02-25T06:32:37.998Z,11.10
2023-02-25T06:35:04.879Z,9.52
2023-02-25T06:37:31.186Z,7.63
2023-02-25T06:39:57.477Z,13.07
2023-02-25T06:42:24.045Z,10.55
2023-02-25T06:44:50.400Z,22.35
2023-02-25T06:47:16.775Z,14.48
2023-02-25T06:49:43.107Z,7.63
2023-02-25T06:52:09.477Z,12.27
2023-02-25T06:54:35.840Z,12.80
2023-02-25T06:57:02.147Z,12.32
2023-02-25T06:59:28.525Z,14.88
2023-02-25T07:01:54.819Z,19.67
2023-02-25T07:04:21.356Z,11.13
2023-02-25T07:06:47.695Z,13.05
2023-02-25T07:09:14.033Z,10.45
2023-02-25T07:11:40.474Z,15.05
2023-02-25T07:14:07.070Z,8.88
2023-02-25T07:16:33.618Z,10.43
2023-02-25T07:19:00.511Z,10.15
2023-02-25T07:21:26.872Z,10.25
2023-02-25T07:23:53.165Z,10.77
2023-02-25T07:26:19.480Z,9.70
2023-02-25T07:28:45.803Z,7.95
2023-02-25T07:31:18.412Z,13.25
2023-02-25T07:33:45.822Z,12.07
2023-02-25T07:36:12.428Z,17.33
2023-02-25T07:38:38.946Z,5.53
2023-02-25T07:41:13.809Z,10.25
2023-02-25T07:46:07.809Z,6.40
2023-02-25T07:48:34.159Z,8.23
2023-02-25T07:51:11.223Z,8.13
2023-02-25T07:53:38.052Z,10.20
2023-02-25T07:56:06.731Z,10.82
2023-02-25T07:58:33.718Z,8.98
2023-02-25T08:01:00.100Z,7.50
2023-02-25T08:03:26.537Z,12.10
2023-02-25T08:05:53.476Z,14.52
2023-02-25T08:08:21.150Z,11.10
2023-02-25T08:10:47.484Z,13.40
2023-02-25T08:13:13.829Z,8.93
2023-02-25T08:15:42.343Z,10.80
2023-02-25T08:18:09.181Z,11.88
2023-02-25T08:20:35.886Z,10.15
2023-02-25T08:23:02.489Z,9.80
2023-02-25T08:25:28.781Z,8.48
2023-02-25T08:27:55.187Z,14.68
2023-02-25T08:30:21.648Z,10.02
2023-02-25T08:32:48.176Z,8.80
2023-02-25T08:35:15.452Z,12.68
2023-02-25T08:37:44.320Z,8.95
2023-02-25T08:40:11.566Z,9.68
2023-02-25T08:42:37.983Z,13.60
2023-02-25T08:45:05.288Z,6.90
2023-02-25T08:47:31.644Z,6.13
2023-02-25T08:49:57.974Z,9.23
2023-02-25T08:52:24.281Z,10.88
2023-02-25T08:54:50.618Z,13.77
2023-02-25T08:57:16.966Z,7.82
2023-02-25T08:59:43.285Z,7.85
2023-02-25T09:02:11.462Z,10.10
2023-02-25T09:04:37.842Z,10.65
2023-02-25T09:07:04.214Z,7.88
2023-02-25T09:09:30.548Z,12.45
2023-02-25T09:11:56.895Z,10.10
2023-02-25T09:14:23.219Z,7.70
2023-02-25T09:16:49.902Z,9.48
2023-02-25T09:19:16.635Z,7.53
2023-02-25T09:21:43.234Z,12.05
2023-02-25T09:24:09.718Z,8.93
2023-02-25T09:26:36.323Z,12.05
2023-02-25T09:29:05.235Z,12.48
2023-02-25T09:31:31.758Z,9.18
2023-02-25T09:36:42.345Z,11.50
2023-02-25T09:39:08.653Z,8.68
2023-02-25T09:41:55.527Z,10.13
2023-02-25T09:44:36.249Z,12.60
2023-02-25T09:47:11.907Z,14.38
2023-02-25T09:49:47.419Z,10.85
2023-02-25T09:52:23.284Z,8.10
2023-02-25T09:54:54.902Z,8.70
2023-02-25T09:57:22.132Z,8.38
2023-02-25T09:59:50.296Z,8.77
2023-02-25T10:02:30.344Z,7.10
2023-02-25T10:05:21.737Z,8.07
2023-02-25T10:08:08.796Z,5.45
2023-02-25T10:10:46.138Z,7.50
2023-02-25T10:13:31.955Z,8.98
2023-02-25T10:16:17.191Z,8.18
2023-02-25T10:21:31.957Z,9.95
2023-02-25T10:24:27.960Z,13.65
2023-02-25T10:26:58.568Z,6.88
2023-02-25T10:29:29.933Z,7.95
2023-02-25T10:31:59.762Z,8.95
2023-02-25T10:34:28.544Z,7.45
2023-02-25T10:36:57.894Z,8.90
2023-02-25T10:39:25.953Z,12.15
2023-02-25T10:41:52.361Z,5.93
2023-02-25T10:44:18.742Z,5.53
2023-02-25T10:47:04.669Z,6.57
2023-02-25T10:49:31.298Z,11.23
2023-02-25T10:52:04.156Z,4.40
2023-02-25T10:54:44.539Z,4.93
2023-02-25T10:57:16.037Z,6.85
2023-02-25T10:59:44.587Z,7.25
2023-02-25T11:02:24.679Z,4.53
2023-02-25T11:04:52.449Z,6.90
2023-02-25T11:07:30.384Z,6.97
2023-02-25T11:10:13.758Z,5.18
2023-02-25T11:12:51.850Z,7.22
2023-02-25T11:15:46.416Z,3.90
2023-02-25T11:18:21.745Z,5.93
2023-02-25T11:21:00.963Z,6.72
2023-02-25T11:23:39.549Z,7.85
2023-02-25T11:26:08.019Z,4.82
2023-02-25T11:28:40.209Z,6.68
2023-02-25T11:31:11.076Z,5.82
2023-02-25T11:33:42.566Z,5.70
2023-02-25T11:36:10.137Z,6.55
2023-02-25T11:38:43.077Z,5.05
2023-02-25T11:41:20.183Z,10.68
2023-02-25T11:43:47.134Z,4.80
2023-02-25T11:46:26.678Z,6.78
2023-02-25T11:49:11.409Z,7.68
2023-02-25T11:52:17.462Z,4.13
2023-02-25T11:55:09.054Z,5.95
2023-02-25T11:57:50.241Z,3.30
2023-02-25T12:00:28.346Z,2.50
2023-02-25T12:03:15.660Z,1.83
2023-02-25T12:05:52.721Z,3.25
2023-02-25T12:08:28.133Z,5.53
2023-02-25T12:11:32.164Z,1.88
2023-02-25T12:14:16.797Z,2.60
2023-02-25T12:17:15.036Z,3.72
2023-02-25T12:20:03.337Z,4.45
2023-02-25T12:22:49.992Z,3.40
2023-02-25T12:25:29.232Z,2.45
2023-02-25T12:28:21.853Z,2.92
2023-02-25T12:31:03.255Z,3.83
2023-02-25T12:33:32.408Z,3.97
2023-02-25T12:36:16.990Z,2.47
2023-02-25T12:39:05.349Z,1.05
2023-02-25T12:41:39.072Z,2.33
2023-02-25T12:44:35.875Z,5.18
2023-02-25T12:47:28.905Z,3.08
2023-02-25T12:50:26.764Z,4.13
2023-02-25T12:53:29.730Z,2.95
2023-02-25T12:56:08.615Z,4.03
2023-02-25T12:58:49.084Z,5.65
2023-02-25T13:02:09.195Z,3.80
2023-02-25T13:05:04.284Z,5.10
2023-02-25T13:07:45.221Z,2.25
2023-02-25T13:10:20.608Z,4.60
2023-02-25T13:13:04.841Z,3.63
2023-02-25T13:15:54.320Z,4.50
2023-02-25T13:18:43.092Z,5.40
2023-02-25T13:21:46.681Z,6.05
2023-02-25T13:24:39.528Z,3.85
2023-02-25T13:27:35.434Z,3.33
2023-02-25T13:30:10.772Z,4.68
2023-02-25T13:32:53.694Z,7.35
2023-02-25T13:35:52.708Z,5.22
2023-02-25T13:38:56.751Z,4.70
2023-02-25T13:41:55.631Z,3.58
2023-02-25T13:44:45.460Z,3.80
2023-02-25T13:47:17.653Z,3.13
2023-02-25T13:50:22.349Z,4.88
2023-02-25T13:53:12.987Z,3.33
2023-02-25T13:56:05.204Z,4.65
2023-02-25T13:59:13.185Z,4.18
2023-02-25T14:02:17.451Z,6.03
2023-02-25T14:05:14.603Z,2.58
2023-02-25T14:07:50.464Z,5.82
2023-02-25T14:10:31.097Z,3.42
2023-02-25T14:13:32.820Z,3.97
2023-02-25T14:16:13.549Z,1.58
2023-02-25T14:18:50.766Z,2.33
2023-02-25T14:21:45.602Z,6.90
2023-02-25T14:24:23.821Z,4.50
2023-02-25T14:27:14.891Z,7.28
2023-02-25T14:30:10.641Z,5.95
2023-02-25T14:32:55.127Z,3.20
2023-02-25T14:35:30.549Z,6.35
2023-02-25T14:38:09.066Z,6.18
2023-02-25T14:41:14.305Z,2.70
2023-02-25T14:43:41.083Z,5.28
2023-02-25T14:46:22.570Z,3.00
2023-02-25T14:49:09.687Z,4.20
2023-02-25T14:52:05.297Z,7.30
2023-02-25T14:57:38.616Z,3.15
2023-02-25T15:00:43.953Z,3.10
2023-02-25T15:03:38.073Z,3.20
2023-02-25T15:06:49.513Z,5.75
2023-02-25T15:09:59.760Z,3.78
2023-02-25T15:12:47.468Z,6.78
2023-02-25T15:15:33.785Z,5.15
2023-02-25T15:18:21.712Z,5.85
2023-02-25T15:20:48.256Z,3.00
2023-02-25T15:23:16.572Z,4.53
2023-02-25T15:25:50.473Z,2.20
2023-02-25T15:28:29.008Z,4.63
2023-02-25T15:30:58.460Z,3.20
2023-02-25T15:33:35.019Z,6.07
2023-02-25T15:36:19.752Z,5.95
2023-02-25T15:38:55.839Z,4.75
2023-02-25T15:41:34.404Z,13.30
2023-02-25T15:44:06.688Z,4.78
2023-02-25T15:46:36.056Z,4.28
2023-02-25T15:49:24.849Z,3.47
2023-02-25T15:51:54.187Z,7.50
2023-02-25T15:54:29.587Z,7.85
2023-02-25T15:57:04.255Z,5.53
2023-02-25T15:59:47.521Z,3.20
2023-02-25T16:02:29.085Z,5.63
2023-02-25T16:05:10.421Z,4.72
2023-02-25T16:07:43.212Z,6.50
2023-02-25T16:10:15.609Z,9.88
2023-02-25T16:12:43.551Z,7.13
2023-02-25T16:15:23.062Z,6.65
2023-02-25T16:17:50.763Z,3.70
2023-02-25T16:20:24.051Z,5.30
2023-02-25T16:22:57.286Z,4.43
2023-02-25T16:25:49.534Z,10.50
2023-02-25T16:28:51.106Z,8.63
2023-02-25T16:31:29.757Z,7.35
2023-02-25T16:34:14.149Z,5.45
2023-02-25T16:36:54.222Z,4.55
2023-02-25T16:39:27.670Z,10.80
2023-02-25T16:41:54.486Z,5.78
2023-02-25T16:44:30.671Z,8.05
2023-02-25T16:46:57.317Z,8.10
2023-02-25T16:49:39.123Z,7.03
2023-02-25T16:52:07.204Z,8.20
2023-02-25T16:54:37.959Z,5.80
2023-02-25T16:57:05.713Z,8.75
2023-02-25T16:59:33.871Z,9.32
2023-02-25T17:02:19.632Z,7.25
2023-02-25T17:04:48.571Z,7.68
2023-02-25T17:07:20.056Z,6.90
2023-02-25T17:09:55.452Z,8.48
2023-02-25T17:12:40.815Z,5.70
2023-02-25T17:15:21.365Z,11.88
2023-02-25T17:17:52.155Z,9.07
2023-02-25T17:20:24.382Z,6.95
2023-02-25T17:22:51.814Z,5.47
2023-02-25T17:25:18.965Z,6.45
2023-02-25T17:27:48.675Z,11.15
2023-02-25T17:30:43.956Z,14.30
2023-02-25T17:33:26.594Z,9.32
2023-02-25T17:35:58.608Z,9.73
2023-02-25T17:38:26.308Z,12.98
2023-02-25T17:40:53.240Z,9.07
2023-02-25T17:43:21.292Z,11.23
2023-02-25T17:46:03.499Z,8.25
2023-02-25T17:48:32.867Z,6.82
2023-02-25T17:51:03.003Z,9.95
2023-02-25T17:53:38.039Z,10.90
2023-02-25T17:56:12.851Z,12.20
2023-02-25T18:01:05.617Z,7.10
2023-02-25T18:03:44.594Z,10.23
2023-02-25T18:06:46.198Z,11.35
2023-02-25T18:09:48.196Z,15.55
2023-02-25T18:12:20.274Z,18.25
2023-02-25T18:14:53.731Z,12.63
2023-02-25T18:17:47.276Z,16.42
2023-02-25T18:20:41.373Z,13.90
2023-02-25T18:23:19.246Z,13.40
2023-02-25T18:26:09.755Z,13.30
2023-02-25T18:28:36.301Z,10.80
2023-02-25T18:31:02.809Z,12.77
2023-02-25T18:33:29.318Z,15.55
2023-02-25T18:35:57.352Z,12.07
2023-02-25T18:38:26.056Z,13.63
2023-02-25T18:40:54.217Z,13.43
2023-02-25T18:43:23.730Z,9.48
2023-02-25T18:45:50.028Z,6.75
2023-02-25T18:48:16.389Z,11.32
2023-02-25T18:50:43.413Z,6.68
2023-02-25T18:53:22.484Z,6.57
2023-02-25T18:55:52.767Z,9.60
2023-02-25T18:58:19.928Z,6.88
2023-02-25T19:00:49.025Z,10.05
2023-02-25T19:03:33.239Z,10.07
2023-02-25T19:06:00.033Z,13.00
2023-02-25T19:08:26.448Z,8.80
2023-02-25T19:10:53.678Z,15.30
2023-02-25T19:13:27.975Z,8.63
2023-02-25T19:15:54.412Z,7.43
2023-02-25T19:18:20.999Z,11.23
2023-02-25T19:20:47.419Z,7.03
2023-02-25T19:23:16.049Z,5.43
2023-02-25T19:25:44.298Z,8.18
2023-02-25T19:28:10.899Z,6.63
2023-02-25T19:30:42.085Z,6.35
2023-02-25T19:33:10.673Z,9.63
2023-02-25T19:35:40.284Z,8.25
2023-02-25T19:38:07.972Z,9.07
2023-02-25T19:40:36.054Z,13.05
2023-02-25T19:43:02.785Z,6.55
2023-02-25T19:45:29.079Z,13.05
2023-02-25T19:47:55.618Z,6.40
2023-02-25T19:50:23.795Z,7.40
2023-02-25T19:52:51.417Z,7.40
2023-02-25T19:55:18.163Z,7.13
2023-02-25T19:57:44.515Z,9.80
2023-02-25T20:00:14.776Z,9.85
2023-02-25T20:02:41.897Z,7.32
2023-02-25T20:05:09.495Z,12.23
2023-02-25T20:07:35.848Z,5.95
2023-02-25T20:10:02.211Z,5.88
2023-02-25T20:12:28.712Z,7.10
2023-02-25T20:14:55.019Z,8.90
2023-02-25T20:17:21.312Z,8.98
2023-02-25T20:19:47.964Z,5.13
2023-02-25T20:22:14.455Z,6.78
2023-02-25T20:24:40.768Z,7.85
2023-02-25T20:27:07.293Z,6.47
2023-02-25T20:29:33.710Z,7.35
2023-02-25T20:32:00.410Z,11.05
2023-02-25T20:34:27.024Z,7.07
2023-02-25T20:37:01.124Z,8.98
2023-02-25T20:39:38.699Z,7.95
2023-02-25T20:42:06.463Z,3.53
2023-02-25T20:44:33.263Z,6.85
2023-02-25T20:46:59.775Z,7.57
2023-02-25T20:49:26.508Z,4.50
2023-02-25T20:51:53.298Z,11.00
2023-02-25T20:54:20.570Z,5.93
2023-02-25T20:56:48.587Z,5.40
2023-02-25T20:59:16.230Z,8.43
2023-02-25T21:01:43.072Z,4.93
2023-02-25T21:04:10.385Z,5.38
2023-02-25T21:06:38.010Z,11.13
2023-02-25T21:09:06.425Z,5.03
2023-02-25T21:11:32.893Z,9.00
2023-02-25T21:13:59.404Z,5.57
2023-02-25T21:16:26.147Z,9.38
2023-02-25T21:18:52.735Z,10.15
2023-02-25T21:21:20.520Z,7.88
2023-02-25T21:23:48.019Z,9.07
2023-02-25T21:26:14.625Z,9.50
2023-02-25T21:28:41.728Z,8.45
2023-02-25T21:31:11.667Z,8.75
2023-02-25T21:33:39.870Z,5.55
2023-02-25T21:36:10.619Z,9.75
2023-02-25T21:38:38.331Z,11.35
2023-02-25T21:41:08.262Z,8.00
2023-02-25T21:43:35.259Z,6.45
2023-02-25T21:46:03.724Z,13.43
2023-02-25T21:48:31.504Z,6.68
2023-02-25T21:50:58.909Z,6.80
2023-02-25T21:53:25.932Z,11.85
2023-02-25T21:55:55.520Z,11.65
2023-02-25T21:58:22.554Z,8.88
2023-02-25T22:00:49.604Z,9.07
2023-02-25T22:03:16.646Z,12.27
2023-02-25T22:05:46.336Z,14.18
2023-02-25T22:08:13.358Z,8.32
2023-02-25T22:10:40.241Z,13.00
2023-02-25T22:13:07.466Z,10.18
2023-02-25T22:15:34.282Z,9.30
2023-02-25T22:18:00.654Z,12.95
2023-02-25T22:20:27.092Z,10.70
2023-02-25T22:22:53.611Z,10.07
2023-02-25T22:25:19.989Z,11.57
2023-02-25T22:27:46.545Z,17.98
2023-02-25T22:30:13.260Z,15.27
2023-02-25T22:32:39.708Z,11.20
2023-02-25T22:35:06.323Z,13.20
2023-02-25T22:37:32.890Z,9.93
2023-02-25T22:39:59.299Z,12.65
2023-02-25T22:42:25.657Z,11.23
2023-02-25T22:44:52.011Z,15.55
2023-02-25T22:47:18.383Z,16.45
2023-02-25T22:49:44.978Z,12.55
2023-02-25T22:52:11.564Z,10.52
2023-02-25T22:54:38.057Z,13.07
2023-02-25T22:57:04.406Z,16.48
2023-02-25T22:59:30.922Z,11.60
2023-02-25T23:01:57.409Z,12.00
2023-02-25T23:04:23.815Z,6.70
2023-02-25T23:06:50.523Z,13.35
2023-02-25T23:09:17.308Z,13.18
2023-02-25T23:11:44.442Z,8.45
2023-02-25T23:14:11.389Z,10.90
2023-02-25T23:16:40.768Z,11.40
2023-02-25T23:19:08.774Z,8.45
2023-02-25T23:21:35.570Z,8.68
2023-02-25T23:24:01.971Z,12.77
2023-02-25T23:26:31.457Z,11.90
2023-02-25T23:28:59.172Z,7.32
2023-02-25T23:31:31.868Z,10.15
2023-02-25T23:34:00.784Z,9.85
2023-02-25T23:36:27.973Z,9.65
2023-02-25T23:38:59.285Z,8.25
2023-02-25T23:41:26.513Z,7.05
2023-02-25T23:43:54.288Z,15.75
2023-02-25T23:46:20.806Z,8.65
2023-02-25T23:48:47.294Z,9.48
2023-02-25T23:51:14.320Z,8.82
2023-02-25T23:53:40.668Z,7.68
2023-02-25T23:56:12.010Z,7.53
2023-02-25T23:58:39.887Z,9.13
